Latest Coastal Weather Observations for Darwin Harbour

IDD60701

Issued at 1:21 am CST Saturday 4 July 2015 (issued every 10 minutes, with the page automatically refreshed every 10 minutes)

About coastal observations | Map of coastal stations | Coastal observations for NT | Marine services | Other Formats
Station Details ID: 014072 Name: DARWIN NTC AWS Lat: -12.47 Lon: 130.85 Height: 0.0 m
Data from the previous 72 hours. | See also: Recent months for locations in Northern Territory
Date/Time
CST
Temp

°C
Wind Pressure Rain
since 9am
mm
Weather Cloud Vis
km
Sea
Height
m
Swell
Dir
 
Speed
knots
Gust
knots
hPa Trend Height
m
Period
s
Dir
04/01:00am 25.4 SE 6 9 1013.9 - - - - - - - - -
04/12:30am 25.7 SE 5 7 1013.8 - - - - - - - - -
04/12:00am 26.0 SE 5 7 1013.9 - - - - - - - - -
 
Date/Time
CST
Temp

°C
Wind Pressure Rain
since 9am
mm
Weather Cloud Vis
km
Sea
Height
m
Swell
Dir
 
Speed
knots
Gust
knots
hPa Trend Height
m
Period
s
Dir
03/11:30pm 26.0 SE 4 5 1013.9 - - - - - - - - -
03/11:00pm 25.3 SE 2 5 1014.1 - - - - - - - - -
03/10:30pm 25.4 SE 2 3 1014.2 - - - - - - - - -
03/10:00pm 25.3 WNW 1 2 1014.0 - - - - - - - - -
03/09:30pm 25.1 E 1 2 1013.5 - - - - - - - - -
03/09:00pm 25.3 ENE 3 5 1013.3 - - - - - - - - -
03/08:30pm 25.5 ENE 4 7 1012.9 - - - - - - - - -
03/08:00pm 25.8 NE 3 8 1012.5 - - - - - - - - -
03/07:30pm 26.1 NE 4 8 1012.1 - - - - - - - - -
03/07:00pm 26.7 NNE 6 9 1011.9 - - - - - - - - -
03/06:30pm 27.1 NNE 6 10 1011.6 - - - - - - - - -
03/06:00pm 28.2 N 5 8 1011.3 - - - - - - - - -
03/05:30pm 28.5 NNE 3 8 1011.1 - - - - - - - - -
03/05:00pm 29.4 NW 4 6 1011.0 - - - - - - - - -
03/04:30pm 28.7 W 5 8 1011.1 - - - - - - - - -
03/04:00pm 28.4 WSW 4 7 1011.1 - - - - - - - - -
03/03:30pm 30.6 E 3 5 1011.3 - - - - - - - - -
03/03:00pm 30.0 E 6 11 1011.6 - - - - - - - - -
03/02:30pm 29.6 ENE 8 15 1012.1 - - - - - - - - -
03/02:00pm 29.0 E 7 12 1012.5 - - - - - - - - -
03/01:30pm 28.7 ESE 6 9 1013.2 - - - - - - - - -
03/01:00pm 28.8 E 7 11 1013.9 - - - - - - - - -
03/12:30pm 28.4 E 7 13 1014.3 - - - - - - - - -
03/12:00pm 27.6 E 8 15 1014.9 - - - - - - - - -
03/11:30am 27.4 E 8 13 1015.3 - - - - - - - - -
03/11:00am 26.9 E 8 15 1015.6 - - - - - - - - -
03/10:30am 25.9 ESE 8 13 1015.8 - - - - - - - - -
03/10:00am 25.6 E 5 11 1015.9 - - - - - - - - -
03/09:30am 24.5 SE 9 12 1015.9 - - - - - - - - -
03/09:00am 23.9 SE 10 12 1016.0 - - - - - - - - -
03/08:30am 24.2 E 5 11 1015.7 - - - - - - - - -
03/08:00am 23.9 ESE 7 9 1015.7 - - - - - - - - -
03/07:30am 23.8 SE 7 11 1015.4 - - - - - - - - -
03/07:00am 24.3 E 8 10 1014.9 - - - - - - - - -
03/06:30am 23.9 E 8 10 1014.7 - - - - - - - - -
03/06:00am 24.6 ENE 8 11 1014.5 - - - - - - - - -
03/05:30am 23.7 E 5 7 1014.4 - - - - - - - - -
03/05:00am 24.1 E 3 6 1014.2 - - - - - - - - -
03/04:30am 24.1 ENE 2 4 1014.4 - - - - - - - - -
03/04:00am 24.1 SSE 4 6 1014.4 - - - - - - - - -
03/03:30am 24.1 SSW 2 6 1014.5 - - - - - - - - -
03/03:00am 24.2 SSE 2 3 1014.7 - - - - - - - - -
03/02:30am 24.3 SW 3 4 1015.1 - - - - - - - - -
03/02:00am 24.3 WSW 3 4 1015.1 - - - - - - - - -
03/01:30am 24.2 W 3 4 1015.3 - - - - - - - - -
03/01:00am 24.2 SW 4 7 1015.2 - - - - - - - - -
03/12:30am 25.0 SW 6 8 1015.4 - - - - - - - - -
03/12:00am 24.7 SSW 7 11 1015.3 - - - - - - - - -
 
Date/Time
CST
Temp

°C
Wind Pressure Rain
since 9am
mm
Weather Cloud Vis
km
Sea
Height
m
Swell
Dir
 
Speed
knots
Gust
knots
hPa Trend Height
m
Period
s
Dir
02/11:30pm 25.5 E 1 3 1015.0 - - - - - - - - -
02/11:00pm 25.6 SE 1 1 1015.1 - - - - - - - - -
02/10:30pm 25.7 NE 2 4 1015.1 - - - - - - - - -
02/10:00pm 26.1 NE 3 5 1015.0 - - - - - - - - -
02/09:30pm 26.3 NE 4 8 1014.6 - - - - - - - - -
02/09:00pm 26.7 NE 4 9 1014.3 - - - - - - - - -
02/08:30pm 27.1 NE 5 8 1014.1 - - - - - - - - -
02/08:00pm 27.1 ENE 5 9 1013.8 - - - - - - - - -
02/07:30pm 27.4 NE 4 9 1013.4 - - - - - - - - -
02/07:00pm 27.8 ENE 5 11 1012.9 - - - - - - - - -
02/06:30pm 28.2 ENE 6 13 1012.5 - - - - - - - - -
02/06:00pm 28.8 NE 6 12 1012.1 - - - - - - - - -
02/05:30pm 29.9 NE 5 10 1011.8 - - - - - - - - -
02/05:00pm 30.2 E 10 14 1011.7 - - - - - - - - -
02/04:30pm 30.3 E 9 15 1011.7 - - - - - - - - -
02/04:00pm 30.3 E 12 16 1011.6 - - - - - - - - -
02/03:30pm 30.7 ENE 11 17 1011.7 - - - - - - - - -
02/03:00pm 30.1 E 10 15 1012.2 - - - - - - - - -
02/02:30pm 29.6 E 17 21 1012.5 - - - - - - - - -
02/02:00pm 29.6 E 16 22 1013.2 - - - - - - - - -
02/01:35pm 29.2 E 18 29 1013.6 - - - - - - - - -
02/01:30pm 29.2 E 17 22 1013.9 - - - - - - - - -
02/01:03pm 29.1 E 18 29 1014.2 - - - - - - - - -
02/01:00pm 29.1 E 17 23 1014.4 - - - - - - - - -
02/12:30pm 28.9 E 18 27 1014.8 - - - - - - - - -
02/12:00pm 28.5 E 19 24 1015.2 - - - - - - - - -
02/11:30am 28.2 E 18 25 1015.9 - - - - - - - - -
02/11:00am 27.1 ESE 17 21 1016.4 - - - - - - - - -
02/10:30am 26.3 ESE 13 17 1016.7 - - - - - - - - -
02/10:00am 25.6 ESE 11 15 1017.1 - - - - - - - - -
02/09:30am 25.4 ESE 13 17 1017.2 - - - - - - - - -
02/09:00am 24.9 ESE 10 13 1017.0 - - - - - - - - -
02/08:30am 24.9 ESE 11 14 1016.8 - - - - - - - - -
02/08:00am 24.6 SE 11 13 1016.6 - - - - - - - - -
02/07:30am 24.9 ESE 10 14 1016.2 - - - - - - - - -
02/07:00am 25.0 E 8 13 1016.0 - - - - - - - - -
02/06:30am 24.9 E 5 8 1015.9 - - - - - - - - -
02/06:00am 24.8 ENE 3 5 1015.7 - - - - - - - - -
02/05:30am 25.1 ENE 5 7 1015.6 - - - - - - - - -
02/05:00am 24.9 ENE 7 8 1015.4 - - - - - - - - -
02/04:30am 25.0 ENE 5 8 1015.4 - - - - - - - - -
02/04:00am 25.1 ENE 9 13 1015.5 - - - - - - - - -
02/03:30am 25.2 ENE 10 14 1015.5 - - - - - - - - -
02/03:00am 25.5 SE 12 15 1015.4 - - - - - - - - -
02/02:30am 25.3 ENE 16 24 1015.8 - - - - - - - - -
02/02:26am 25.4 ENE 12 24 1015.8 - - - - - - - - -
02/02:00am 24.8 ENE 5 9 1015.8 - - - - - - - - -
02/01:30am 24.9 ENE 6 8 1015.7 - - - - - - - - -
02/01:00am 24.9 ENE 8 11 1015.9 - - - - - - - - -
02/12:30am 24.8 ENE 6 9 1016.1 - - - - - - - - -
02/12:00am 25.3 ENE 6 10 1016.1 - - - - - - - - -
 
Date/Time
CST
Temp

°C
Wind Pressure Rain
since 9am
mm
Weather Cloud Vis
km
Sea
Height
m
Swell
Dir
 
Speed
knots
Gust
knots
hPa Trend Height
m
Period
s
Dir
01/11:30pm 25.6 ENE 5 8 1016.2 - - - - - - - - -
01/11:00pm 25.9 NE 1 3 1016.1 - - - - - - - - -
01/10:30pm 25.7 W 1 2 1015.9 - - - - - - - - -
01/10:00pm 25.8 WSW 1 2 1015.8 - - - - - - - - -
01/09:30pm 25.8 W 2 2 1015.6 - - - - - - - - -
01/09:00pm 25.7 W 2 3 1015.2 - - - - - - - - -
01/08:30pm 25.9 W 3 5 1014.9 - - - - - - - - -
01/08:00pm 26.3 W 5 7 1014.4 - - - - - - - - -
01/07:30pm 26.6 WNW 5 6 1013.9 - - - - - - - - -
01/07:00pm 26.5 WNW 5 7 1013.7 - - - - - - - - -
01/06:30pm 26.9 WNW 5 7 1013.4 - - - - - - - - -
01/06:00pm 27.6 WNW 5 8 1013.2 - - - - - - - - -
01/05:30pm 28.0 NW 5 9 1012.8 - - - - - - - - -
01/05:00pm 27.9 NNW 6 12 1012.7 - - - - - - - - -
01/04:30pm 28.6 WNW 6 10 1012.7 - - - - - - - - -
01/04:00pm 30.9 E 5 7 1012.5 - - - - - - - - -
01/03:30pm 30.6 ESE 7 11 1012.6 - - - - - - - - -
01/03:00pm 29.2 SSE 3 8 1012.9 - - - - - - - - -
01/02:30pm 29.9 SE 1 5 1013.3 - - - - - - - - -
01/02:00pm 28.5 W 3 5 1014.0 - - - - - - - - -
01/01:30pm 28.1 WSW 6 7 1014.7 - - - - - - - - -
01/01:00pm 28.8 SSE 2 5 1015.3 - - - - - - - - -
01/12:30pm 27.0 SW 4 6 1016.1 - - - - - - - - -
01/12:00pm 26.4 SW 4 5 1016.8 - - - - - - - - -
01/11:30am 26.6 WSW 3 5 1017.3 - - - - - - - - -
01/11:00am 26.2 ESE 5 7 1017.6 - - - - - - - - -
01/10:30am 25.9 ESE 5 7 1018.0 - - - - - - - - -
01/10:00am 24.8 ESE 5 6 1018.2 - - - - - - - - -
01/09:30am 24.0 ESE 6 7 1018.1 - - - - - - - - -
01/09:00am 24.1 ESE 5 6 1017.8 - - - - - - - - -
01/08:30am 23.1 SE 5 6 1017.3 - - - - - - - - -
01/08:00am 23.1 ESE 5 6 1017.1 - - - - - - - - -
01/07:30am 23.0 SE 6 9 1016.8 - - - - - - - - -
01/07:00am 22.7 SE 6 13 1016.6 - - - - - - - - -
01/06:30am 24.1 ENE 2 3 1016.0 - - - - - - - - -
01/06:00am 24.4 ESE 1 2 1015.6 - - - - - - - - -
01/05:30am 24.4 W 1 2 1015.6 - - - - - - - - -
01/05:00am 24.5 NW 2 3 1015.7 - - - - - - - - -
01/04:30am 24.4 NNE 1 3 1015.7 - - - - - - - - -
01/04:00am 24.8 W 4 6 1015.6 - - - - - - - - -
01/03:30am 24.7 WSW 1 3 1015.7 - - - - - - - - -
01/03:00am 24.7 WSW 1 1 1015.9 - - - - - - - - -
01/02:30am 24.2 CALM 0 0 1016.0 - - - - - - - - -
01/02:00am 24.7 CALM 0 1 1016.1 - - - - - - - - -
01/01:30am 24.7 WSW 1 2 1016.2 - - - - - - - - -

Other Formats:

Comma delimited format used in spreadsheet applications
http://www.bom.gov.au/fwo/IDD60701/IDD60701.95122.axf

JavaScript Object Notation format (JSON) in row-major order
http://www.bom.gov.au/fwo/IDD60701/IDD60701.95122.json